Portada
METAR-TAF:

METAR-TAF

Aeropuertos :

Hoedspruit, Sudáfrica

latitud: 24-21-17S, longitud: 31-03-01E, altitud: 531 m

Observación

El informe se hizo hace 49 minutos, a las 20:00 UTC
Viento 3 kt del noroeste
Temperatura 24°C
Humedad 34%
Presión 1013 hPa

METAR: FAHS 262000Z AUTO 31003KT //// // ////// 24/07 Q1013

Hora: 22:49 (20:49 UTC)

Pronóstico

El informe se hizo hace 11 horas y 49 minutos, a las 09:00 UTC
Pronóstico válido del 26 a las 10 UTC al 26 a las 18 UTC
Viento 10 kt del noroeste
Visibilidad 10 km o más
sin nubes por debajo de 1500 m y sin presencia de cumulonimbus.
Evolucionando progresivamente
del 26 a las 16 UTC al 26 a las 18 UTC
Viento 3 kt con dirección variable

TAF: FAHS 260900Z 2610/2618 32010KT CAVOK TX30/2612Z TN22/2618Z BECMG 2616/2618 VRB03KT

Observaciones y pronósticos meteorológicos de más de 4000 aeropuertos (mensajes METAR y TAF).

Los puntos amarillos y rojos representan las estaciones disponibles.

Ponga el ratón en el punto deseado para ver el nombre de la estación.

Haga clic para ver las observaciones y los pronósticos meteorológicos.

Para cambiar el mapa : haga clic en los botones verdes con una cruz de color negro para hacer un zoom, en el botón verde con un guión para alejar o en las flechas verdes para mapas adyacentes.


METAR-TAF: